»·PEaware :: N2822D KSEE-KRNM

N2822D :: KSEE-KRNM

FLIGHT INFORMATION

Flight Status: Arrived
Operator: Privately registered:
United States
More flights under this callsign
Pilot: Keith B. (30325)
Aircraft: BEECH AIRCRAFT BARON
(BE58)
More flights by this aircraft type
Origin: KSEE Gillespie
United States
Destination: KRNM Ramona
United States
More flights between these airports :: More routes between these airports
Route: KSEE L78 KTRM KRNM
File this flight plan on PilotEdge
Remarks: VFR Group Flight 18
Altitude:
(Current/Filed)
6,500ft
Speed:
(Current/Filed)
180kts
Departed: 21-Nov-20 08:25 AM
Arrived: 21-Nov-20 10:25 AM
Distance/Time
Traveled:
13nm/2:00
Distance/Time
To Go:
Arrived

Flight Plot

Page will automatically refresh every two minutes.

Flight plan parsing failed; only flown route is shown


Map Options




Map Legend


Flown Route
Filed Route
Departure Airport
Arrival Airport
Navaid (VOR, NDB)
Fix

Horizontal Profiles

Position Reports

Time Latitude Longitude Heading Altitude Ground
Speed
21-Nov-20 07:29 32.824905 -116.968931 14 381ft 0kts
21-Nov-20 07:30 32.824905 -116.968931 14 381ft 0kts
21-Nov-20 07:31 32.824905 -116.968931 14 381ft 0kts
21-Nov-20 07:32 32.824905 -116.968931 14 381ft 0kts
21-Nov-20 07:33 32.824905 -116.968931 14 381ft 0kts
21-Nov-20 07:34 32.824905 -116.968931 14 381ft 0kts
21-Nov-20 07:35 32.824905 -116.968931 14 381ft 0kts
21-Nov-20 07:36 32.824905 -116.968931 14 381ft 0kts
21-Nov-20 07:37 32.824905 -116.968931 14 381ft 0kts
21-Nov-20 07:38 32.824905 -116.968931 14 381ft 0kts
21-Nov-20 07:39 32.824905 -116.968931 14 381ft 0kts
21-Nov-20 07:40 32.824905 -116.968931 14 381ft 0kts
21-Nov-20 07:41 32.824905 -116.968931 14 381ft 0kts
21-Nov-20 07:42 32.824987 -116.968994 12 381ft 0kts
21-Nov-20 07:43 32.824986 -116.968995 7 381ft 0kts
21-Nov-20 07:44 32.824986 -116.968995 7 381ft 0kts
21-Nov-20 07:45 32.824986 -116.968995 7 381ft 0kts
21-Nov-20 07:46 32.824994 -116.969130 17 380ft 0kts
21-Nov-20 07:47 32.825010 -116.969122 10 380ft 0kts
21-Nov-20 07:48 32.825010 -116.969122 10 380ft 0kts
21-Nov-20 07:49 32.825010 -116.969122 10 380ft 0kts
21-Nov-20 07:50 32.825010 -116.969122 10 380ft 0kts
21-Nov-20 07:55 32.824856 -116.969135 16 381ft 1kts
21-Nov-20 07:56 32.825008 -116.969123 9 380ft 0kts
21-Nov-20 07:57 32.825008 -116.969123 9 380ft 0kts
21-Nov-20 07:58 32.825013 -116.969122 10 380ft 0kts
21-Nov-20 07:59 32.825013 -116.969122 10 380ft 0kts
21-Nov-20 08:00 32.825013 -116.969122 10 380ft 0kts
21-Nov-20 08:01 32.825013 -116.969122 10 380ft 0kts
21-Nov-20 08:02 32.825013 -116.969122 10 380ft 0kts
21-Nov-20 08:03 32.825013 -116.969122 10 380ft 0kts
21-Nov-20 08:04 32.825013 -116.969122 10 380ft 0kts
21-Nov-20 08:05 32.825013 -116.969122 10 380ft 0kts
21-Nov-20 08:06 32.825013 -116.969122 10 380ft 0kts
21-Nov-20 08:07 32.825013 -116.969122 10 380ft 0kts
21-Nov-20 08:08 32.825013 -116.969122 10 380ft 0kts
21-Nov-20 08:09 32.825013 -116.969122 10 380ft 0kts
21-Nov-20 08:10 32.825013 -116.969122 10 380ft 0kts
21-Nov-20 08:11 32.825013 -116.969122 10 380ft 0kts
21-Nov-20 08:12 32.825013 -116.969122 10 380ft 0kts
21-Nov-20 08:13 32.825013 -116.969122 10 380ft 0kts
21-Nov-20 08:14 32.825013 -116.969122 10 380ft 0kts
21-Nov-20 08:15 32.825013 -116.969122 10 380ft 0kts
21-Nov-20 08:16 32.825013 -116.969122 10 380ft 0kts
21-Nov-20 08:17 32.825013 -116.969122 10 380ft 0kts
21-Nov-20 08:18 32.825013 -116.969122 10 380ft 0kts
21-Nov-20 08:19 32.824843 -116.965482 104 388ft 11kts
21-Nov-20 08:20 32.825596 -116.963968 312 392ft 0kts
21-Nov-20 08:21 32.825596 -116.963968 312 392ft 0kts
21-Nov-20 08:22 32.825805 -116.964319 344 391ft 0kts
21-Nov-20 08:23 32.825844 -116.964333 342 391ft 5kts
21-Nov-20 08:24 32.829695 -116.982550 282 709ft 121kts
21-Nov-20 08:25 32.814158 -116.989220 123 1890ft 139kts
21-Nov-20 08:27 32.804171 -116.943969 92 2183ft 139kts
21-Nov-20 08:28 32.805839 -116.903864 89 2261ft 107kts
21-Nov-20 08:29 32.800549 -116.868446 100 2527ft 131kts
21-Nov-20 08:30 32.793334 -116.823802 108 3549ft 140kts
21-Nov-20 08:31 32.777712 -116.780976 106 4536ft 147kts
21-Nov-20 08:32 32.765163 -116.733162 106 5402ft 158kts
21-Nov-20 08:33 32.750404 -116.676393 106 5420ft 193kts
21-Nov-20 08:34 32.734517 -116.615085 104 5739ft 183kts
21-Nov-20 08:35 32.747614 -116.562413 56 6634ft 167kts
21-Nov-20 08:36 32.781153 -116.533766 5 7410ft 146kts
21-Nov-20 08:37 32.813531 -116.515627 94 7444ft 160kts
21-Nov-20 08:38 32.782635 -116.495723 192 7490ft 124kts
21-Nov-20 08:39 32.744027 -116.492039 146 7523ft 156kts
21-Nov-20 08:40 32.728951 -116.445883 99 7321ft 148kts
21-Nov-20 08:41 32.718666 -116.402222 108 6622ft 122kts
21-Nov-20 08:42 32.711492 -116.371676 104 5458ft 90kts
21-Nov-20 08:42 32.706774 -116.343389 97 5388ft 113kts
21-Nov-20 08:44 32.709529 -116.294553 111 5324ft 130kts
21-Nov-20 08:44 32.685989 -116.291436 176 5642ft 104kts
21-Nov-20 08:46 32.676823 -116.248758 141 5335ft 140kts
21-Nov-20 08:46 32.658860 -116.220772 114 4454ft 130kts
21-Nov-20 08:47 32.637169 -116.200593 136 3648ft 93kts
21-Nov-20 08:48 32.626950 -116.174804 77 3179ft 86kts
21-Nov-20 08:49 32.618798 -116.153056 216 3167ft 88kts
21-Nov-20 08:50 32.614265 -116.182863 273 3578ft 101kts
21-Nov-20 08:51 32.628825 -116.217655 284 4674ft 140kts
21-Nov-20 08:52 32.656667 -116.245900 350 5801ft 138kts
21-Nov-20 08:53 32.695951 -116.236762 13 6444ft 166kts
21-Nov-20 08:54 32.745302 -116.223199 12 6459ft 190kts
21-Nov-20 08:55 32.797037 -116.208903 12 6475ft 189kts
21-Nov-20 08:56 32.849318 -116.194441 12 6623ft 187kts
21-Nov-20 08:57 32.898231 -116.173963 26 6762ft 188kts
21-Nov-20 08:58 32.948806 -116.163692 357 6869ft 188kts
21-Nov-20 08:59 33.000220 -116.164032 359 6908ft 184kts
21-Nov-20 09:00 33.051225 -116.163694 359 6933ft 183kts
21-Nov-20 09:01 33.102135 -116.163411 359 6956ft 183kts
21-Nov-20 09:02 33.150933 -116.163114 359 7426ft 170kts
21-Nov-20 09:03 33.199978 -116.162833 359 7490ft 182kts
21-Nov-20 09:04 33.250346 -116.167809 352 7482ft 182kts
21-Nov-20 09:05 33.300932 -116.175200 352 7478ft 184kts
21-Nov-20 09:06 33.351489 -116.182626 352 6990ft 181kts
21-Nov-20 09:07 33.401236 -116.190074 352 6447ft 179kts
21-Nov-20 09:08 33.448662 -116.206916 342 5860ft 177kts
21-Nov-20 09:09 33.495646 -116.224920 342 5243ft 177kts
21-Nov-20 09:10 33.542448 -116.242645 342 3960ft 179kts
21-Nov-20 09:11 33.588573 -116.259737 342 2226ft 170kts
21-Nov-20 09:12 33.629979 -116.271184 359 1301ft 135kts
21-Nov-20 09:13 33.642027 -116.232057 96 1086ft 149kts
21-Nov-20 09:14 33.634098 -116.188492 154 792ft 130kts
21-Nov-20 09:15 33.594756 -116.182189 125 1324ft 139kts
21-Nov-20 09:16 33.605367 -116.156420 359 82ft 103kts
21-Nov-20 09:17 33.625991 -116.156367 356 -124ft 29kts
21-Nov-20 09:18 33.631544 -116.157718 357 -119ft 17kts
21-Nov-20 09:19 33.634307 -116.159019 180 -115ft 0kts
21-Nov-20 09:20 33.634307 -116.159019 180 -115ft 0kts
21-Nov-20 09:21 33.634307 -116.159019 180 -115ft 0kts
21-Nov-20 09:22 33.634307 -116.159019 180 -115ft 0kts
21-Nov-20 09:23 33.634307 -116.159019 180 -115ft 0kts
21-Nov-20 09:24 33.634307 -116.159019 180 -115ft 0kts
21-Nov-20 09:25 33.634307 -116.159019 180 -115ft 0kts
21-Nov-20 09:26 33.634307 -116.159019 180 -115ft 0kts
21-Nov-20 09:27 33.634307 -116.159019 180 -115ft 0kts
21-Nov-20 09:28 33.634307 -116.159019 180 -115ft 0kts
21-Nov-20 09:29 33.634307 -116.159019 180 -115ft 0kts
21-Nov-20 09:30 33.634307 -116.159019 180 -115ft 0kts
21-Nov-20 09:31 33.634307 -116.159019 180 -115ft 0kts
21-Nov-20 09:32 33.634307 -116.159019 180 -115ft 0kts
21-Nov-20 09:33 33.634307 -116.159019 180 -115ft 0kts
21-Nov-20 09:34 33.634307 -116.159019 180 -115ft 0kts
21-Nov-20 09:35 33.634307 -116.159019 180 -115ft 0kts
21-Nov-20 09:36 33.634307 -116.159019 180 -115ft 0kts
21-Nov-20 09:37 33.634307 -116.159019 180 -115ft 0kts
21-Nov-20 09:38 33.634307 -116.159019 180 -115ft 0kts
21-Nov-20 09:39 33.634307 -116.159019 180 -115ft 0kts
21-Nov-20 09:40 33.634307 -116.159019 180 -115ft 0kts
21-Nov-20 09:41 33.634307 -116.159019 180 -115ft 0kts
21-Nov-20 09:42 33.634307 -116.159019 180 -115ft 0kts
21-Nov-20 09:43 33.634307 -116.159019 180 -115ft 0kts
21-Nov-20 09:44 33.634307 -116.159019 180 -115ft 0kts
21-Nov-20 09:45 33.634307 -116.159019 180 -115ft 0kts
21-Nov-20 09:46 33.634307 -116.159019 180 -115ft 0kts
21-Nov-20 09:47 33.634307 -116.159019 180 -115ft 0kts
21-Nov-20 09:48 33.634307 -116.159019 180 -115ft 0kts
21-Nov-20 09:49 33.634307 -116.159019 180 -115ft 0kts
21-Nov-20 09:50 33.634307 -116.159019 180 -115ft 0kts
21-Nov-20 09:51 33.634307 -116.159019 180 -115ft 0kts
21-Nov-20 09:52 33.634307 -116.159019 180 -115ft 0kts
21-Nov-20 09:53 33.634117 -116.158728 93 -116ft 10kts
21-Nov-20 09:54 33.629339 -116.157737 180 -120ft 24kts
21-Nov-20 09:55 33.622181 -116.157731 181 -127ft 26kts
21-Nov-20 09:56 33.617041 -116.157720 178 -131ft 17kts
21-Nov-20 09:57 33.615880 -116.157504 92 -132ft 0kts
21-Nov-20 09:58 33.618265 -116.156413 359 -131ft 71kts
21-Nov-20 09:59 33.647834 -116.156096 16 1215ft 111kts
21-Nov-20 10:00 33.660021 -116.115940 76 2028ft 167kts
21-Nov-20 10:01 33.638205 -116.070619 136 3272ft 163kts
21-Nov-20 10:02 33.598636 -116.072926 215 4507ft 155kts
21-Nov-20 10:03 33.563390 -116.101981 216 5709ft 152kts
21-Nov-20 10:04 33.526853 -116.133361 220 6250ft 182kts
21-Nov-20 10:05 33.490397 -116.179127 231 6240ft 194kts
21-Nov-20 10:06 33.455405 -116.229160 232 6234ft 196kts
21-Nov-20 10:07 33.420779 -116.279537 232 6229ft 195kts
21-Nov-20 10:08 33.376562 -116.317888 211 6228ft 198kts
21-Nov-20 10:09 33.328634 -116.350617 211 6223ft 198kts
21-Nov-20 10:10 33.280858 -116.383239 211 6344ft 191kts
21-Nov-20 10:11 33.234367 -116.414810 211 6453ft 195kts
21-Nov-20 10:12 33.186775 -116.447248 211 6448ft 197kts
21-Nov-20 10:13 33.143671 -116.486260 231 6424ft 199kts
21-Nov-20 10:14 33.107908 -116.531695 228 5616ft 180kts
21-Nov-20 10:15 33.075362 -116.573342 228 5152ft 147kts
21-Nov-20 10:16 33.051489 -116.607402 244 5100ft 136kts
21-Nov-20 10:17 33.037310 -116.650660 251 4680ft 151kts
21-Nov-20 10:19 33.024499 -116.698235 251 4316ft 150kts
21-Nov-20 10:20 33.017281 -116.746593 271 3706ft 144kts
21-Nov-20 10:21 33.020907 -116.792276 278 3063ft 132kts
21-Nov-20 10:22 33.026850 -116.833214 280 2530ft 119kts
21-Nov-20 10:23 33.031823 -116.866377 279 2140ft 89kts
21-Nov-20 10:24 33.036227 -116.895836 280 1668ft 98kts
21-Nov-20 10:25 33.039655 -116.915003 5 1391ft 0kts
21-Nov-20 10:26 33.039758 -116.914950 56 1391ft 5kts
21-Nov-20 10:27 33.038801 -116.908099 98 1398ft 20kts
21-Nov-20 10:28 33.036679 -116.908924 298 1391ft 3kts
21-Nov-20 10:29 33.036686 -116.908960 274 1391ft 0kts
21-Nov-20 10:30 33.036683 -116.908922 274 1391ft 0kts

Navigation Log

Ident Type
Flight plan parsing failed, navigation log unavailable